WEW weather

Wee Waa Airport
New South Wales, Australia

Public forecast

Using degrees Celsius for public forecast. Weather courtesy of forecast.io.

Closest aviation weather report (METAR) to Wee Waa Airport

Closest report is Narrabri Airport, 22.0 nm (40.8 km) E. Retrieved 2020/07/05 10:00 UTC (57 minutes ago):

YNBR 051000Z AUTO 18005KT 9999 // OVC038 11/04 Q1025

Closest aviation forecast (TAF) to Wee Waa Airport

Closest forecast is Tamworth Airport, 89.3 nm (165.4 km) SE. Retrieved 2020/07/05 06:00 UTC (5 hours ago):

TAF YSTW 050620Z 0506/0600 VRB03KT 9999 SCT030 PROB30 0516/0521 0500 FG BKN010